Bonita, CA (91908)

4:57 PM PDT on September 19, 2014 (GMT -0700)
Bonita Rd | Change Station
CLOSE
Current Station
Personal Weather Station
Location: Chula Vista, CA
Elevation: 85 ft
Nearby Weather Stations

Elev 85 ft 32.65 °N, 117.05 °W | Updated 5 minutes ago

Clear
Clear
79.6 °F
Feels Like 82 °F
N
5.0
Wind Variable Wind from WNW

Today
High -- | Low -- °F
--% Chance of Precip.
Yesterday
High -- | Low -- °F
Precip. -- in
6:34 AM 6:48 PM
Waning Crescent, 16% visible
Pressure 29.83 in
Visibility 10.0 miles
Clouds Clear
Heat Index 82 °F
Dew Point 66 °F
Humidity 64%
Rainfall 0.00 in
Snow Depth 0 in , 0 in , 0 in
UV 4 out of 12
Pollen 5.80 out of 12
Ozone Good
PM2.5 Good
Flu Activity Not available.
METAR KSDM 192253Z 29007KT 10SM CLR 24/17 A2984 RMK AO2 SLP100 T02440167

More Conditions Fewer Conditions

Pressure 29.83 in
Visibility 10.0 miles
Clouds Clear
Heat Index 82 °F
Dew Point 66 °F
Humidity 64%
Rainfall 0.00 in
Snow Depth 0 in , 0 in , 0 in
UV 4 out of 12
Pollen 5.80 out of 12
Ozone Good
PM2.5 Good
Flu Activity Not available.
METAR KSDM 192253Z 29007KT 10SM CLR 24/17 A2984 RMK AO2 SLP100 T02440167

More Conditions Fewer Conditions

10-Day Weather Forecast

Almanac

Astronomy

Sep. 19, 2014 Rise Set
Actual Time 6:34 AM PDT 6:48 PM PDT
Civil Twilight 6:09 AM PDT 7:13 PM PDT
Nautical Twilight 5:41 AM PDT 7:42 PM PDT
Astronomical Twilight 5:11 AM PDT 8:11 PM PDT
Moon 2:34 AM PDT 4:10 PM PDT
Length of Visible Light 13h 03m
Length of Day
12h 14m
Tomorrow will be 1m 59s shorter.
Waning Crescent, 16% of the Moon is Illuminated
Today
Waning Crescent
Sep 24
New
Oct 1
First Quarter
Oct 8
Full
Oct 15
Last Quarter

Today's Extremes

State Highs State Lows

Community

WunderPhotos

Upload Photos

1,754,730 photos uploaded!

Nearby

Air Quality

  Air Quality AQ Index Pollutant
Yesterday Good
PM2.5
Yesterday Good
OZONE
Current Good
OZONE
Current Good
PM2.5
Friday Good
PM2.5
Friday Good
OZONE
Saturday Good
PM2.5
Saturday Good
OZONE
Sunday Good
PM2.5
Sunday Good
OZONE
Monday Moderate
PM2.5
Monday Good
OZONE

Snow Depth

Station Depth Elevation
Leavitt Meadows 0 in 7200 ft
Rubicon #2 0 in 7500 ft
Echo Peak 0 in 7800 ft
Tahoe City Cross 0 in 6750 ft
Burnside Lake 0 in 8139 ft

Earthquake Activity

City Distance Mag. Time & Date
Aguanga, California 57 miles 2.5 1:38 AM PDT
2014-09-19
Minimum magnitude displayed is 2.5.

Coastal Water Temperatures

Place Temperature
La Jolla, CA 73.9 °F
San Diego, CA 75.9 °F

Nearby Weather Stations